sensor_id;sensor_type;location;lat;lon;timestamp;pressure;altitude;pressure_sealevel;temperature;humidity
15634;BME280;14654;48.898;8.308;2022-07-30T00:00:17;100326.94;;;21.17;96.48
15634;BME280;14654;48.898;8.308;2022-07-30T00:02:43;100318.66;;;21.07;97.14
15634;BME280;14654;48.898;8.308;2022-07-30T00:05:08;100310.50;;;20.96;98.04
15634;BME280;14654;48.898;8.308;2022-07-30T00:07:34;100327.59;;;20.87;98.39
15634;BME280;14654;48.898;8.308;2022-07-30T00:10:00;100317.63;;;20.76;98.78
15634;BME280;14654;48.898;8.308;2022-07-30T00:12:26;100315.28;;;20.70;99.09
15634;BME280;14654;48.898;8.308;2022-07-30T00:14:51;100321.78;;;20.63;99.69
15634;BME280;14654;48.898;8.308;2022-07-30T00:17:17;100316.75;;;20.58;100.00
15634;BME280;14654;48.898;8.308;2022-07-30T00:19:42;100320.47;;;20.54;100.00
15634;BME280;14654;48.898;8.308;2022-07-30T00:22:07;100313.75;;;20.48;100.00
15634;BME280;14654;48.898;8.308;2022-07-30T00:24:33;100320.25;;;20.41;100.00
15634;BME280;14654;48.898;8.308;2022-07-30T00:26:58;100321.59;;;20.31;100.00
15634;BME280;14654;48.898;8.308;2022-07-30T00:29:26;100318.66;;;20.19;100.00
15634;BME280;14654;48.898;8.308;2022-07-30T00:32:01;100316.53;;;20.08;100.00
15634;BME280;14654;48.898;8.308;2022-07-30T00:34:26;100317.00;;;19.99;100.00
15634;BME280;14654;48.898;8.308;2022-07-30T00:36:52;100313.13;;;19.89;100.00
15634;BME280;14654;48.898;8.308;2022-07-30T00:39:17;100311.56;;;19.83;100.00
15634;BME280;14654;48.898;8.308;2022-07-30T00:41:59;100307.34;;;19.80;100.00
15634;BME280;14654;48.898;8.308;2022-07-30T00:44:26;100313.59;;;19.78;100.00
15634;BME280;14654;48.898;8.308;2022-07-30T00:46:52;100316.28;;;19.76;100.00
15634;BME280;14654;48.898;8.308;2022-07-30T00:49:18;100309.31;;;19.75;100.00
15634;BME280;14654;48.898;8.308;2022-07-30T00:51:45;100314.56;;;19.75;100.00
15634;BME280;14654;48.898;8.308;2022-07-30T00:54:11;100306.78;;;19.74;100.00
15634;BME280;14654;48.898;8.308;2022-07-30T00:56:36;100311.31;;;19.70;100.00
15634;BME280;14654;48.898;8.308;2022-07-30T00:59:03;100312.47;;;19.64;100.00
15634;BME280;14654;48.898;8.308;2022-07-30T01:01:31;100316.19;;;19.59;100.00
15634;BME280;14654;48.898;8.308;2022-07-30T01:03:57;100319.97;;;19.53;100.00
15634;BME280;14654;48.898;8.308;2022-07-30T01:06:22;100313.22;;;19.47;100.00
15634;BME280;14654;48.898;8.308;2022-07-30T01:08:47;100321.41;;;19.41;100.00
15634;BME280;14654;48.898;8.308;2022-07-30T01:11:13;100313.72;;;19.37;100.00
15634;BME280;14654;48.898;8.308;2022-07-30T01:13:39;100317.47;;;19.31;100.00
15634;BME280;14654;48.898;8.308;2022-07-30T01:16:04;100313.22;;;19.28;100.00
15634;BME280;14654;48.898;8.308;2022-07-30T01:18:32;100308.19;;;19.24;100.00
15634;BME280;14654;48.898;8.308;2022-07-30T01:21:24;100300.56;;;19.17;100.00
15634;BME280;14654;48.898;8.308;2022-07-30T01:23:55;100301.69;;;19.12;100.00
15634;BME280;14654;48.898;8.308;2022-07-30T01:26:22;100293.97;;;19.09;100.00
15634;BME280;14654;48.898;8.308;2022-07-30T01:28:51;100294.97;;;19.06;100.00
15634;BME280;14654;48.898;8.308;2022-07-30T01:31:18;100295.03;;;19.04;100.00
15634;BME280;14654;48.898;8.308;2022-07-30T01:33:46;100300.22;;;19.06;100.00
15634;BME280;14654;48.898;8.308;2022-07-30T01:36:15;100305.59;;;19.03;100.00
15634;BME280;14654;48.898;8.308;2022-07-30T01:38:45;100298.72;;;19.00;100.00
15634;BME280;14654;48.898;8.308;2022-07-30T01:41:12;100301.69;;;18.91;100.00
15634;BME280;14654;48.898;8.308;2022-07-30T01:43:42;100311.75;;;18.81;100.00
15634;BME280;14654;48.898;8.308;2022-07-30T01:46:09;100309.44;;;18.73;100.00
15634;BME280;14654;48.898;8.308;2022-07-30T01:48:38;100309.63;;;18.69;100.00
15634;BME280;14654;48.898;8.308;2022-07-30T01:51:06;100305.38;;;18.66;100.00
15634;BME280;14654;48.898;8.308;2022-07-30T01:53:36;100309.81;;;18.64;100.00
15634;BME280;14654;48.898;8.308;2022-07-30T01:56:03;100315.16;;;18.63;100.00
15634;BME280;14654;48.898;8.308;2022-07-30T01:58:31;100312.66;;;18.59;100.00
15634;BME280;14654;48.898;8.308;2022-07-30T02:00:59;100318.09;;;18.55;100.00
15634;BME280;14654;48.898;8.308;2022-07-30T02:03:25;100321.81;;;18.49;100.00
15634;BME280;14654;48.898;8.308;2022-07-30T02:05:56;100316.81;;;18.43;100.00
15634;BME280;14654;48.898;8.308;2022-07-30T02:11:31;100333.34;;;18.23;100.00
15634;BME280;14654;48.898;8.308;2022-07-30T02:14:23;100338.97;;;18.13;100.00
15634;BME280;14654;48.898;8.308;2022-07-30T02:16:53;100330.50;;;18.07;100.00
15634;BME280;14654;48.898;8.308;2022-07-30T02:19:22;100334.19;;;18.01;100.00
15634;BME280;14654;48.898;8.308;2022-07-30T02:21:57;100340.41;;;17.98;100.00
15634;BME280;14654;48.898;8.308;2022-07-30T02:24:27;100343.06;;;17.97;100.00
15634;BME280;14654;48.898;8.308;2022-07-30T02:29:37;100341.41;;;17.94;100.00
15634;BME280;14654;48.898;8.308;2022-07-30T02:32:06;100344.91;;;17.95;100.00
15634;BME280;14654;48.898;8.308;2022-07-30T02:34:35;100347.56;;;17.93;100.00
15634;BME280;14654;48.898;8.308;2022-07-30T02:37:02;100345.00;;;17.92;100.00
15634;BME280;14654;48.898;8.308;2022-07-30T02:39:29;100351.03;;;17.94;100.00
15634;BME280;14654;48.898;8.308;2022-07-30T02:41:56;100355.47;;;17.92;100.00
15634;BME280;14654;48.898;8.308;2022-07-30T02:44:24;100372.09;;;17.91;100.00
15634;BME280;14654;48.898;8.308;2022-07-30T02:46:53;100369.56;;;17.89;100.00
15634;BME280;14654;48.898;8.308;2022-07-30T02:49:21;100366.16;;;17.86;100.00
15634;BME280;14654;48.898;8.308;2022-07-30T02:51:48;100365.44;;;17.82;100.00
15634;BME280;14654;48.898;8.308;2022-07-30T02:54:17;100378.59;;;17.80;100.00
15634;BME280;14654;48.898;8.308;2022-07-30T02:56:43;100376.09;;;17.77;100.00
15634;BME280;14654;48.898;8.308;2022-07-30T02:59:10;100376.28;;;17.73;100.00
15634;BME280;14654;48.898;8.308;2022-07-30T03:01:37;100377.47;;;17.64;100.00
15634;BME280;14654;48.898;8.308;2022-07-30T03:04:04;100378.59;;;17.57;100.00
15634;BME280;14654;48.898;8.308;2022-07-30T03:06:30;100376.94;;;17.54;100.00
15634;BME280;14654;48.898;8.308;2022-07-30T03:08:58;100380.47;;;17.53;100.00
15634;BME280;14654;48.898;8.308;2022-07-30T03:11:25;100372.69;;;17.51;100.00
15634;BME280;14654;48.898;8.308;2022-07-30T03:13:52;100371.81;;;17.51;100.00
15634;BME280;14654;48.898;8.308;2022-07-30T03:16:21;100370.97;;;17.50;100.00
15634;BME280;14654;48.898;8.308;2022-07-30T03:18:48;100381.44;;;17.50;100.00
15634;BME280;14654;48.898;8.308;2022-07-30T03:21:14;100380.56;;;17.50;100.00
15634;BME280;14654;48.898;8.308;2022-07-30T03:23:42;100379.72;;;17.49;100.00
15634;BME280;14654;48.898;8.308;2022-07-30T03:26:09;100384.97;;;17.49;100.00
15634;BME280;14654;48.898;8.308;2022-07-30T03:28:38;100386.78;;;17.47;100.00
15634;BME280;14654;48.898;8.308;2022-07-30T03:31:04;100386.84;;;17.46;100.00
15634;BME280;14654;48.898;8.308;2022-07-30T03:33:31;100384.22;;;17.46;100.00
15634;BME280;14654;48.898;8.308;2022-07-30T03:35:58;100389.56;;;17.43;100.00
15634;BME280;14654;48.898;8.308;2022-07-30T03:38:24;100386.97;;;17.43;100.00
15634;BME280;14654;48.898;8.308;2022-07-30T03:40:50;100388.66;;;17.44;100.00
15634;BME280;14654;48.898;8.308;2022-07-30T03:43:17;100389.50;;;17.44;100.00
15634;BME280;14654;48.898;8.308;2022-07-30T03:45:44;100390.38;;;17.45;100.00
15634;BME280;14654;48.898;8.308;2022-07-30T03:48:11;100398.97;;;17.48;100.00
15634;BME280;14654;48.898;8.308;2022-07-30T03:50:39;100400.66;;;17.49;100.00
15634;BME280;14654;48.898;8.308;2022-07-30T03:53:07;100403.28;;;17.49;100.00
15634;BME280;14654;48.898;8.308;2022-07-30T03:55:33;100405.91;;;17.49;100.00
15634;BME280;14654;48.898;8.308;2022-07-30T03:58:00;100402.41;;;17.49;100.00
15634;BME280;14654;48.898;8.308;2022-07-30T04:00:26;100408.50;;;17.49;100.00
15634;BME280;14654;48.898;8.308;2022-07-30T04:02:53;100411.97;;;17.50;100.00
15634;BME280;14654;48.898;8.308;2022-07-30T04:05:19;100402.31;;;17.52;100.00
15634;BME280;14654;48.898;8.308;2022-07-30T04:07:44;100407.44;;;17.55;100.00
15634;BME280;14654;48.898;8.308;2022-07-30T04:10:10;100405.56;;;17.59;100.00
15634;BME280;14654;48.898;8.308;2022-07-30T04:12:36;100410.69;;;17.62;100.00
15634;BME280;14654;48.898;8.308;2022-07-30T04:15:02;100410.50;;;17.66;100.00
15634;BME280;14654;48.898;8.308;2022-07-30T04:17:46;100412.13;;;17.71;100.00
15634;BME280;14654;48.898;8.308;2022-07-30T04:20:19;100409.22;;;17.78;100.00
15634;BME280;14654;48.898;8.308;2022-07-30T04:22:45;100418.50;;;18.11;100.00
15634;BME280;14654;48.898;8.308;2022-07-30T04:25:12;100415.59;;;18.63;100.00
15634;BME280;14654;48.898;8.308;2022-07-30T04:27:39;100408.53;;;19.08;100.00
15634;BME280;14654;48.898;8.308;2022-07-30T04:30:05;100420.34;;;19.39;99.64
15634;BME280;14654;48.898;8.308;2022-07-30T04:32:31;100424.69;;;19.59;99.00
15634;BME280;14654;48.898;8.308;2022-07-30T04:34:57;100426.63;;;19.75;97.78
15634;BME280;14654;48.898;8.308;2022-07-30T04:37:25;100430.88;;;19.98;97.00
15634;BME280;14654;48.898;8.308;2022-07-30T04:39:52;100424.53;;;20.21;95.69
15634;BME280;14654;48.898;8.308;2022-07-30T04:42:26;100426.47;;;20.18;94.80
15634;BME280;14654;48.898;8.308;2022-07-30T04:44:51;100433.19;;;20.04;95.09
15634;BME280;14654;48.898;8.308;2022-07-30T04:47:18;100439.09;;;19.90;94.35
15634;BME280;14654;48.898;8.308;2022-07-30T04:49:44;100442.31;;;19.76;94.80
15634;BME280;14654;48.898;8.308;2022-07-30T04:52:11;100451.44;;;19.68;95.10
15634;BME280;14654;48.898;8.308;2022-07-30T04:54:44;100444.69;;;19.62;94.83
15634;BME280;14654;48.898;8.308;2022-07-30T04:57:12;100443.06;;;19.59;94.89
15634;BME280;14654;48.898;8.308;2022-07-30T04:59:38;100449.16;;;19.60;94.70
15634;BME280;14654;48.898;8.308;2022-07-30T05:02:05;100451.66;;;19.63;94.58
15634;BME280;14654;48.898;8.308;2022-07-30T05:04:31;100447.06;;;19.68;94.58
15634;BME280;14654;48.898;8.308;2022-07-30T05:06:59;100451.19;;;19.74;94.89
15634;BME280;14654;48.898;8.308;2022-07-30T05:09:26;100447.50;;;19.78;94.56
15634;BME280;14654;48.898;8.308;2022-07-30T05:11:53;100448.13;;;19.83;94.13
15634;BME280;14654;48.898;8.308;2022-07-30T05:14:21;100444.44;;;19.89;94.02
15634;BME280;14654;48.898;8.308;2022-07-30T05:16:46;100448.91;;;20.06;93.61
15634;BME280;14654;48.898;8.308;2022-07-30T05:19:12;100453.06;;;20.48;92.45
15634;BME280;14654;48.898;8.308;2022-07-30T05:21:37;100458.00;;;20.74;91.63
15634;BME280;14654;48.898;8.308;2022-07-30T05:24:03;100445.88;;;21.06;90.58
15634;BME280;14654;48.898;8.308;2022-07-30T05:26:29;100455.59;;;21.57;89.00
15634;BME280;14654;48.898;8.308;2022-07-30T05:28:54;100456.72;;;21.86;87.98
15634;BME280;14654;48.898;8.308;2022-07-30T05:31:19;100458.47;;;22.67;86.21
15634;BME280;14654;48.898;8.308;2022-07-30T05:33:45;100458.72;;;23.83;82.60
15634;BME280;14654;48.898;8.308;2022-07-30T05:36:10;100458.84;;;24.93;79.13
15634;BME280;14654;48.898;8.308;2022-07-30T05:38:36;100455.75;;;25.78;75.46
15634;BME280;14654;48.898;8.308;2022-07-30T05:41:01;100458.03;;;26.46;73.05
15634;BME280;14654;48.898;8.308;2022-07-30T05:43:27;100447.13;;;26.98;71.72
15634;BME280;14654;48.898;8.308;2022-07-30T05:45:52;100458.16;;;27.51;70.41
15634;BME280;14654;48.898;8.308;2022-07-30T05:48:17;100457.78;;;28.02;69.55
15634;BME280;14654;48.898;8.308;2022-07-30T05:50:43;100455.47;;;28.52;68.31
15634;BME280;14654;48.898;8.308;2022-07-30T05:53:08;100451.09;;;28.95;67.20
15634;BME280;14654;48.898;8.308;2022-07-30T05:55:33;100453.25;;;29.23;65.91
15634;BME280;14654;48.898;8.308;2022-07-30T05:57:59;100449.91;;;29.52;64.85
15634;BME280;14654;48.898;8.308;2022-07-30T06:00:24;100451.31;;;29.87;64.21
15634;BME280;14654;48.898;8.308;2022-07-30T06:02:50;100455.34;;;30.22;63.02
15634;BME280;14654;48.898;8.308;2022-07-30T06:05:15;100456.91;;;30.34;62.40
15634;BME280;14654;48.898;8.308;2022-07-30T06:07:40;100457.66;;;30.56;61.84
15634;BME280;14654;48.898;8.308;2022-07-30T06:10:06;100457.94;;;30.73;61.22
15634;BME280;14654;48.898;8.308;2022-07-30T06:12:31;100466.22;;;30.99;61.44
15634;BME280;14654;48.898;8.308;2022-07-30T06:14:57;100461.38;;;31.32;60.91
15634;BME280;14654;48.898;8.308;2022-07-30T06:17:23;100461.59;;;31.58;59.74
15634;BME280;14654;48.898;8.308;2022-07-30T06:19:48;100467.88;;;31.77;59.24
15634;BME280;14654;48.898;8.308;2022-07-30T06:22:15;100465.28;;;31.85;58.83
15634;BME280;14654;48.898;8.308;2022-07-30T06:24:41;100470.31;;;31.98;58.48
15634;BME280;14654;48.898;8.308;2022-07-30T06:27:06;100468.63;;;31.97;58.60
15634;BME280;14654;48.898;8.308;2022-07-30T06:29:32;100465.09;;;32.25;58.50
15634;BME280;14654;48.898;8.308;2022-07-30T06:31:57;100465.75;;;32.36;57.72
15634;BME280;14654;48.898;8.308;2022-07-30T06:34:23;100456.38;;;32.41;58.16
15634;BME280;14654;48.898;8.308;2022-07-30T06:36:48;100466.72;;;32.53;57.78
15634;BME280;14654;48.898;8.308;2022-07-30T06:39:14;100473.16;;;32.61;57.83
15634;BME280;14654;48.898;8.308;2022-07-30T06:41:40;100478.91;;;32.66;57.78
15634;BME280;14654;48.898;8.308;2022-07-30T06:44:05;100472.03;;;32.81;57.63
15634;BME280;14654;48.898;8.308;2022-07-30T06:46:31;100472.16;;;32.98;58.05
15634;BME280;14654;48.898;8.308;2022-07-30T06:48:56;100473.66;;;33.19;57.61
15634;BME280;14654;48.898;8.308;2022-07-30T06:51:21;100467.28;;;33.20;56.91
15634;BME280;14654;48.898;8.308;2022-07-30T06:53:47;100469.81;;;33.21;56.67
15634;BME280;14654;48.898;8.308;2022-07-30T06:56:13;100472.00;;;33.26;56.33
15634;BME280;14654;48.898;8.308;2022-07-30T06:58:39;100475.53;;;33.26;56.18
15634;BME280;14654;48.898;8.308;2022-07-30T07:01:05;100476.06;;;33.30;56.65
15634;BME280;14654;48.898;8.308;2022-07-30T07:03:30;100480.50;;;33.39;56.09
15634;BME280;14654;48.898;8.308;2022-07-30T07:05:56;100482.06;;;33.50;56.11
15634;BME280;14654;48.898;8.308;2022-07-30T07:08:21;100476.53;;;33.52;55.72
15634;BME280;14654;48.898;8.308;2022-07-30T07:10:47;100482.16;;;33.67;56.16
15634;BME280;14654;48.898;8.308;2022-07-30T07:13:12;100475.72;;;33.59;55.87
15634;BME280;14654;48.898;8.308;2022-07-30T07:15:38;100484.41;;;33.27;56.26
15634;BME280;14654;48.898;8.308;2022-07-30T07:18:04;100492.13;;;33.04;56.43
15634;BME280;14654;48.898;8.308;2022-07-30T07:20:38;100487.19;;;33.35;56.46
15634;BME280;14654;48.898;8.308;2022-07-30T07:23:04;100485.53;;;33.77;56.38
15634;BME280;14654;48.898;8.308;2022-07-30T07:25:29;100485.25;;;34.23;56.00
15634;BME280;14654;48.898;8.308;2022-07-30T07:27:55;100488.59;;;34.25;55.63
15634;BME280;14654;48.898;8.308;2022-07-30T07:30:20;100483.31;;;33.99;55.36
15634;BME280;14654;48.898;8.308;2022-07-30T07:32:46;100486.06;;;34.24;55.74
15634;BME280;14654;48.898;8.308;2022-07-30T07:35:12;100485.13;;;34.49;55.57
15634;BME280;14654;48.898;8.308;2022-07-30T07:37:38;100484.66;;;34.71;55.38
15634;BME280;14654;48.898;8.308;2022-07-30T07:40:04;100484.88;;;34.94;55.01
15634;BME280;14654;48.898;8.308;2022-07-30T07:42:29;100481.31;;;35.10;54.79
15634;BME280;14654;48.898;8.308;2022-07-30T07:44:55;100478.28;;;35.13;55.11
15634;BME280;14654;48.898;8.308;2022-07-30T07:47:20;100478.44;;;35.12;54.64
15634;BME280;14654;48.898;8.308;2022-07-30T07:49:45;100482.13;;;35.10;54.82
15634;BME280;14654;48.898;8.308;2022-07-30T07:52:11;100479.47;;;35.02;54.39
15634;BME280;14654;48.898;8.308;2022-07-30T07:54:36;100481.28;;;34.77;55.14
15634;BME280;14654;48.898;8.308;2022-07-30T07:57:02;100474.06;;;34.53;55.31
15634;BME280;14654;48.898;8.308;2022-07-30T07:59:32;100476.06;;;34.50;55.48
15634;BME280;14654;48.898;8.308;2022-07-30T08:01:57;100477.41;;;34.46;55.62
15634;BME280;14654;48.898;8.308;2022-07-30T08:04:22;100479.19;;;34.29;55.75
15634;BME280;14654;48.898;8.308;2022-07-30T08:06:48;100479.63;;;34.00;55.81
15634;BME280;14654;48.898;8.308;2022-07-30T08:09:13;100479.50;;;33.75;56.07
15634;BME280;14654;48.898;8.308;2022-07-30T08:11:39;100483.31;;;33.64;56.06
15634;BME280;14654;48.898;8.308;2022-07-30T08:14:12;100472.72;;;33.54;56.37
15634;BME280;14654;48.898;8.308;2022-07-30T08:16:38;100477.56;;;33.33;56.67
15634;BME280;14654;48.898;8.308;2022-07-30T08:19:03;100487.84;;;33.11;56.98
15634;BME280;14654;48.898;8.308;2022-07-30T08:21:29;100494.22;;;32.92;57.19
15634;BME280;14654;48.898;8.308;2022-07-30T08:23:54;100479.59;;;32.68;57.47
15634;BME280;14654;48.898;8.308;2022-07-30T08:26:19;100474.59;;;32.37;57.51
15634;BME280;14654;48.898;8.308;2022-07-30T08:28:45;100469.41;;;32.07;57.83
15634;BME280;14654;48.898;8.308;2022-07-30T08:31:10;100471.97;;;31.81;58.29
15634;BME280;14654;48.898;8.308;2022-07-30T08:33:36;100465.94;;;31.59;58.84
15634;BME280;14654;48.898;8.308;2022-07-30T08:36:01;100470.69;;;31.38;59.28
15634;BME280;14654;48.898;8.308;2022-07-30T08:38:26;100472.00;;;31.14;59.20
15634;BME280;14654;48.898;8.308;2022-07-30T08:40:55;100470.59;;;30.90;59.64
15634;BME280;14654;48.898;8.308;2022-07-30T08:43:23;100475.13;;;30.60;59.86
15634;BME280;14654;48.898;8.308;2022-07-30T08:45:50;100469.16;;;30.37;59.85
15634;BME280;14654;48.898;8.308;2022-07-30T08:48:16;100471.63;;;30.19;60.60
15634;BME280;14654;48.898;8.308;2022-07-30T08:50:44;100470.75;;;29.99;60.60
15634;BME280;14654;48.898;8.308;2022-07-30T08:53:11;100470.25;;;29.84;60.91
15634;BME280;14654;48.898;8.308;2022-07-30T08:55:37;100469.06;;;29.66;60.41
15634;BME280;14654;48.898;8.308;2022-07-30T08:58:04;100469.16;;;29.55;59.20
15634;BME280;14654;48.898;8.308;2022-07-30T09:00:30;100468.25;;;29.45;59.76
15634;BME280;14654;48.898;8.308;2022-07-30T09:02:56;100476.66;;;29.40;60.15
15634;BME280;14654;48.898;8.308;2022-07-30T09:05:21;100465.41;;;29.37;60.20
15634;BME280;14654;48.898;8.308;2022-07-30T09:07:47;100468.31;;;29.33;59.63
15634;BME280;14654;48.898;8.308;2022-07-30T09:10:13;100462.06;;;29.23;58.75
15634;BME280;14654;48.898;8.308;2022-07-30T09:12:44;100473.53;;;29.14;57.80
15634;BME280;14654;48.898;8.308;2022-07-30T09:17:59;100467.34;;;29.13;58.63
15634;BME280;14654;48.898;8.308;2022-07-30T09:20:31;100473.13;;;29.18;58.77
15634;BME280;14654;48.898;8.308;2022-07-30T09:22:59;100476.38;;;29.22;58.58
15634;BME280;14654;48.898;8.308;2022-07-30T09:25:33;100472.72;;;29.23;58.76
15634;BME280;14654;48.898;8.308;2022-07-30T09:27:59;100471.63;;;29.26;58.86
15634;BME280;14654;48.898;8.308;2022-07-30T09:30:24;100472.47;;;29.26;58.73
15634;BME280;14654;48.898;8.308;2022-07-30T09:32:52;100469.94;;;29.25;58.29
15634;BME280;14654;48.898;8.308;2022-07-30T09:35:18;100459.88;;;29.28;58.79
15634;BME280;14654;48.898;8.308;2022-07-30T09:37:45;100471.00;;;29.33;59.10
15634;BME280;14654;48.898;8.308;2022-07-30T09:40:16;100452.78;;;29.39;58.92
15634;BME280;14654;48.898;8.308;2022-07-30T09:42:43;100462.47;;;29.40;58.27
15634;BME280;14654;48.898;8.308;2022-07-30T09:45:11;100457.16;;;29.40;58.05
15634;BME280;14654;48.898;8.308;2022-07-30T09:47:41;100463.91;;;29.44;57.76
15634;BME280;14654;48.898;8.308;2022-07-30T09:50:11;100460.94;;;29.37;57.61
15634;BME280;14654;48.898;8.308;2022-07-30T09:52:39;100458.25;;;29.37;57.40
15634;BME280;14654;48.898;8.308;2022-07-30T09:55:05;100457.16;;;29.40;57.33
15634;BME280;14654;48.898;8.308;2022-07-30T09:57:31;100450.63;;;29.32;57.54
15634;BME280;14654;48.898;8.308;2022-07-30T09:59:58;100448.09;;;29.31;57.92
15634;BME280;14654;48.898;8.308;2022-07-30T10:02:39;100453.66;;;29.39;57.87
15634;BME280;14654;48.898;8.308;2022-07-30T10:05:15;100453.81;;;29.47;57.78
15634;BME280;14654;48.898;8.308;2022-07-30T10:07:53;100452.31;;;29.55;56.54
15634;BME280;14654;48.898;8.308;2022-07-30T10:10:22;100445.69;;;29.49;56.61
15634;BME280;14654;48.898;8.308;2022-07-30T10:12:50;100445.97;;;29.46;56.52
15634;BME280;14654;48.898;8.308;2022-07-30T10:15:19;100450.69;;;29.42;57.07
15634;BME280;14654;48.898;8.308;2022-07-30T10:17:46;100445.69;;;29.49;57.46
15634;BME280;14654;48.898;8.308;2022-07-30T10:20:12;100444.69;;;29.50;57.27
15634;BME280;14654;48.898;8.308;2022-07-30T10:22:39;100439.66;;;29.47;58.17
15634;BME280;14654;48.898;8.308;2022-07-30T10:25:06;100447.69;;;29.57;58.23
15634;BME280;14654;48.898;8.308;2022-07-30T10:27:32;100437.50;;;29.72;57.75
15634;BME280;14654;48.898;8.308;2022-07-30T10:29:58;100436.41;;;29.84;57.77
15634;BME280;14654;48.898;8.308;2022-07-30T10:32:27;100435.09;;;30.00;58.31
15634;BME280;14654;48.898;8.308;2022-07-30T10:34:53;100427.38;;;30.06;57.93
15634;BME280;14654;48.898;8.308;2022-07-30T10:37:19;100439.53;;;29.89;58.06
15634;BME280;14654;48.898;8.308;2022-07-30T10:39:52;100435.47;;;29.54;57.49
15634;BME280;14654;48.898;8.308;2022-07-30T10:45:46;100429.00;;;28.83;58.78
15634;BME280;14654;48.898;8.308;2022-07-30T10:48:17;100434.00;;;28.77;59.62
15634;BME280;14654;48.898;8.308;2022-07-30T10:50:55;100422.19;;;28.90;58.70
15634;BME280;14654;48.898;8.308;2022-07-30T10:53:44;100426.31;;;29.04;58.91
15634;BME280;14654;48.898;8.308;2022-07-30T10:56:24;100423.13;;;29.32;59.16
15634;BME280;14654;48.898;8.308;2022-07-30T11:04:24;100422.41;;;29.92;57.39
15634;BME280;14654;48.898;8.308;2022-07-30T11:06:50;100421.06;;;30.07;57.04
15634;BME280;14654;48.898;8.308;2022-07-30T11:09:39;100426.25;;;30.19;57.01
15634;BME280;14654;48.898;8.308;2022-07-30T11:12:08;100424.03;;;30.24;57.16
15634;BME280;14654;48.898;8.308;2022-07-30T11:17:16;100409.75;;;30.54;56.68
15634;BME280;14654;48.898;8.308;2022-07-30T11:22:34;100409.16;;;30.80;56.66
15634;BME280;14654;48.898;8.308;2022-07-30T11:25:06;100401.97;;;30.91;55.32
15634;BME280;14654;48.898;8.308;2022-07-30T11:27:43;100406.72;;;31.07;55.10
15634;BME280;14654;48.898;8.308;2022-07-30T11:35:23;100391.25;;;31.20;54.84
15634;BME280;14654;48.898;8.308;2022-07-30T11:40:22;100386.06;;;30.99;55.14
15634;BME280;14654;48.898;8.308;2022-07-30T11:42:49;100381.25;;;31.02;55.08
15634;BME280;14654;48.898;8.308;2022-07-30T11:47:43;100381.25;;;31.22;54.88
15634;BME280;14654;48.898;8.308;2022-07-30T11:52:51;100388.75;;;30.89;55.40
15634;BME280;14654;48.898;8.308;2022-07-30T11:55:37;100387.69;;;30.62;56.24
15634;BME280;14654;48.898;8.308;2022-07-30T11:58:05;100376.28;;;30.70;54.01
15634;BME280;14654;48.898;8.308;2022-07-30T12:00:42;100387.97;;;30.69;54.22
15634;BME280;14654;48.898;8.308;2022-07-30T12:03:19;100385.50;;;30.95;54.75
15634;BME280;14654;48.898;8.308;2022-07-30T12:05:46;100380.53;;;31.20;54.27
15634;BME280;14654;48.898;8.308;2022-07-30T12:08:13;100377.47;;;31.15;53.90
15634;BME280;14654;48.898;8.308;2022-07-30T12:10:39;100373.94;;;31.05;53.68
15634;BME280;14654;48.898;8.308;2022-07-30T12:15:34;100371.63;;;30.72;54.45
15634;BME280;14654;48.898;8.308;2022-07-30T12:18:00;100373.56;;;30.90;54.27
15634;BME280;14654;48.898;8.308;2022-07-30T12:20:26;100372.66;;;31.09;53.90
15634;BME280;14654;48.898;8.308;2022-07-30T12:22:52;100379.84;;;31.18;53.00
15634;BME280;14654;48.898;8.308;2022-07-30T12:25:18;100366.16;;;31.31;53.18
15634;BME280;14654;48.898;8.308;2022-07-30T12:27:45;100359.88;;;31.50;52.80
15634;BME280;14654;48.898;8.308;2022-07-30T12:30:12;100355.28;;;31.60;53.15
15634;BME280;14654;48.898;8.308;2022-07-30T12:32:38;100355.13;;;31.62;53.79
15634;BME280;14654;48.898;8.308;2022-07-30T12:35:04;100363.84;;;31.64;53.72
15634;BME280;14654;48.898;8.308;2022-07-30T12:37:30;100354.69;;;31.39;53.82
15634;BME280;14654;48.898;8.308;2022-07-30T12:40:11;100352.59;;;30.95;53.42
15634;BME280;14654;48.898;8.308;2022-07-30T12:42:48;100344.09;;;30.62;53.57
15634;BME280;14654;48.898;8.308;2022-07-30T12:45:31;100352.25;;;30.60;53.57
15634;BME280;14654;48.898;8.308;2022-07-30T12:47:57;100343.91;;;30.73;52.65
15634;BME280;14654;48.898;8.308;2022-07-30T12:50:25;100341.78;;;30.86;53.00
15634;BME280;14654;48.898;8.308;2022-07-30T12:52:52;100338.25;;;30.96;53.31
15634;BME280;14654;48.898;8.308;2022-07-30T12:55:27;100338.09;;;30.97;53.40
15634;BME280;14654;48.898;8.308;2022-07-30T12:58:00;100331.19;;;31.05;53.92
15634;BME280;14654;48.898;8.308;2022-07-30T13:00:31;100329.41;;;31.33;53.10
15634;BME280;14654;48.898;8.308;2022-07-30T13:02:57;100335.00;;;31.68;53.01
15634;BME280;14654;48.898;8.308;2022-07-30T13:05:47;100321.72;;;31.94;51.67
15634;BME280;14654;48.898;8.308;2022-07-30T13:08:14;100323.56;;;32.12;51.64
15634;BME280;14654;48.898;8.308;2022-07-30T13:10:56;100323.56;;;32.30;51.77
15634;BME280;14654;48.898;8.308;2022-07-30T13:13:24;100320.19;;;32.46;51.81
15634;BME280;14654;48.898;8.308;2022-07-30T13:16:04;100319.72;;;32.50;51.13
15634;BME280;14654;48.898;8.308;2022-07-30T13:18:32;100313.28;;;32.25;50.95
15634;BME280;14654;48.898;8.308;2022-07-30T13:20:59;100299.00;;;32.16;51.18
15634;BME280;14654;48.898;8.308;2022-07-30T13:23:25;100304.34;;;32.16;51.36
15634;BME280;14654;48.898;8.308;2022-07-30T13:25:51;100301.06;;;32.22;51.87
15634;BME280;14654;48.898;8.308;2022-07-30T13:28:18;100310.94;;;32.40;50.85